createdAt,value
2023-04-16T00:01:24.297Z,36.13
2023-04-16T00:03:51.860Z,29.93
2023-04-16T00:06:19.735Z,44.57
2023-04-16T00:08:47.286Z,41.53
2023-04-16T00:11:14.775Z,35.07
2023-04-16T00:13:42.190Z,28.43
2023-04-16T00:21:14.109Z,33.77
2023-04-16T00:23:41.232Z,34.23
2023-04-16T00:26:10.054Z,42.70
2023-04-16T00:28:37.699Z,36.40
2023-04-16T00:31:08.434Z,36.87
2023-04-16T00:33:35.606Z,47.23
2023-04-16T00:36:02.895Z,43.53
2023-04-16T00:41:09.650Z,43.47
2023-04-16T00:43:36.851Z,37.10
2023-04-16T00:46:06.266Z,42.97
2023-04-16T00:48:34.417Z,34.90
2023-04-16T00:51:02.281Z,36.03
2023-04-16T00:53:30.239Z,43.80
2023-04-16T00:56:00.431Z,28.40
2023-04-16T01:03:39.278Z,45.73
2023-04-16T01:06:08.164Z,32.33
2023-04-16T01:08:38.135Z,43.47
2023-04-16T01:11:05.853Z,33.27
2023-04-16T01:13:33.943Z,48.77
2023-04-16T01:16:01.383Z,33.60
2023-04-16T01:18:28.734Z,35.03
2023-04-16T01:26:00.645Z,29.80
2023-04-16T01:28:30.472Z,31.77
2023-04-16T01:31:00.046Z,27.70
2023-04-16T01:33:27.403Z,31.33
2023-04-16T01:36:00.535Z,33.00
2023-04-16T01:38:39.222Z,30.17
2023-04-16T01:41:06.834Z,31.30
2023-04-16T01:46:31.792Z,31.67
2023-04-16T01:49:02.648Z,30.50
2023-04-16T01:51:32.386Z,29.00
2023-04-16T01:53:59.799Z,31.93
2023-04-16T01:56:47.557Z,28.83
2023-04-16T01:59:15.200Z,27.77
2023-04-16T02:02:01.567Z,32.00
2023-04-16T02:07:11.584Z,32.60
2023-04-16T02:09:39.997Z,29.27
2023-04-16T02:12:14.341Z,29.67
2023-04-16T02:15:05.083Z,30.97
2023-04-16T02:17:41.480Z,31.73
2023-04-16T02:20:10.757Z,34.23
2023-04-16T02:22:41.837Z,30.97
2023-04-16T02:25:09.440Z,29.53
2023-04-16T02:33:31.437Z,31.63
2023-04-16T02:35:58.328Z,39.93
2023-04-16T02:38:26.994Z,31.83
2023-04-16T02:41:03.853Z,38.23
2023-04-16T02:43:38.643Z,35.40
2023-04-16T02:46:08.419Z,35.27
2023-04-16T02:48:46.399Z,39.77
2023-04-16T02:51:13.657Z,41.17
2023-04-16T03:01:44.545Z,35.77
2023-04-16T03:07:05.341Z,37.43
2023-04-16T03:09:32.581Z,37.20
2023-04-16T03:12:01.333Z,37.60
2023-04-16T03:14:28.942Z,32.30
2023-04-16T03:17:02.139Z,39.53
2023-04-16T03:22:39.577Z,34.23
2023-04-16T03:25:07.585Z,38.43
2023-04-16T03:27:35.566Z,34.90
2023-04-16T03:30:04.128Z,33.20
2023-04-16T03:32:31.675Z,33.93
2023-04-16T03:35:04.201Z,33.87
2023-04-16T03:37:31.783Z,37.57
2023-04-16T03:39:59.813Z,35.90
2023-04-16T03:47:42.057Z,32.80
2023-04-16T03:50:10.996Z,33.80
2023-04-16T03:52:38.570Z,34.20
2023-04-16T03:55:07.064Z,32.23
2023-04-16T03:57:34.833Z,35.03
2023-04-16T04:00:01.874Z,28.57
2023-04-16T04:02:29.727Z,29.23
2023-04-16T04:07:42.123Z,27.97
2023-04-16T04:10:10.358Z,25.77
2023-04-16T04:12:37.710Z,30.90
2023-04-16T04:15:06.465Z,26.27
2023-04-16T04:17:34.301Z,27.37
2023-04-16T04:20:04.337Z,28.60
2023-04-16T04:22:31.555Z,27.20
2023-04-16T04:24:59.827Z,26.03
2023-04-16T04:32:32.764Z,29.40
2023-04-16T04:35:01.506Z,25.57
2023-04-16T04:37:29.046Z,24.97
2023-04-16T04:39:56.297Z,26.87
2023-04-16T04:42:24.997Z,29.53
2023-04-16T04:44:52.104Z,30.73
2023-04-16T04:47:19.057Z,29.73
2023-04-16T04:52:27.889Z,27.30
2023-04-16T04:54:55.176Z,23.77
2023-04-16T04:57:24.863Z,23.43
2023-04-16T04:59:52.653Z,35.03
2023-04-16T05:02:39.375Z,34.30
2023-04-16T05:05:12.553Z,34.07
2023-04-16T05:07:40.230Z,28.10
2023-04-16T05:12:56.026Z,32.63
2023-04-16T05:15:23.802Z,31.53
2023-04-16T05:17:52.569Z,31.97
2023-04-16T05:20:22.441Z,27.73
2023-04-16T05:22:51.205Z,25.27
2023-04-16T05:25:18.574Z,31.73
2023-04-16T05:27:48.305Z,29.17
2023-04-16T05:35:44.396Z,27.83
2023-04-16T05:38:13.585Z,30.23
2023-04-16T05:40:44.659Z,25.47
2023-04-16T05:43:24.540Z,29.80
2023-04-16T05:45:53.680Z,24.73
2023-04-16T05:48:22.707Z,27.67
2023-04-16T05:50:53.422Z,29.20
2023-04-16T05:53:20.722Z,38.93
2023-04-16T06:00:53.611Z,194.77
2023-04-16T06:03:23.340Z,184.90
2023-04-16T06:05:52.607Z,46.80
2023-04-16T06:08:20.108Z,182.23
2023-04-16T06:10:56.112Z,79.37
2023-04-16T06:13:23.731Z,572.77
2023-04-16T06:15:50.818Z,612.70
2023-04-16T06:21:22.254Z,686.57
2023-04-16T06:23:49.366Z,643.33
2023-04-16T06:26:28.851Z,541.70
2023-04-16T06:28:56.120Z,825.43
2023-04-16T06:31:23.435Z,184.63
2023-04-16T06:33:50.900Z,762.13
2023-04-16T06:36:18.242Z,238.17
2023-04-16T06:38:54.133Z,367.00
2023-04-16T06:46:30.561Z,529.00
2023-04-16T06:48:57.929Z,463.97
2023-04-16T06:51:26.214Z,527.30
2023-04-16T06:53:53.539Z,334.37
2023-04-16T06:56:21.861Z,451.10
2023-04-16T06:58:51.106Z,533.90
2023-04-16T07:01:18.735Z,288.43
2023-04-16T07:07:57.043Z,75.20
2023-04-16T07:10:24.503Z,611.90
2023-04-16T07:12:52.473Z,168.53
2023-04-16T07:15:19.535Z,710.37
2023-04-16T07:17:46.595Z,404.77
2023-04-16T07:20:17.622Z,227.40
2023-04-16T07:22:45.707Z,73.13
2023-04-16T07:27:52.578Z,222.27
2023-04-16T07:30:20.201Z,316.80
2023-04-16T07:32:50.000Z,483.37
2023-04-16T07:35:21.025Z,489.97
2023-04-16T07:37:48.372Z,735.13
2023-04-16T07:40:18.340Z,107.33
2023-04-16T07:42:45.905Z,88.07
2023-04-16T07:48:06.053Z,267.93
2023-04-16T07:50:39.806Z,304.67
2023-04-16T07:53:11.547Z,246.47
2023-04-16T07:55:44.440Z,221.97
2023-04-16T07:58:11.962Z,70.23
2023-04-16T08:00:39.998Z,71.77
2023-04-16T08:03:18.307Z,294.20
2023-04-16T08:10:49.453Z,80.73
2023-04-16T08:13:16.862Z,80.80
2023-04-16T08:15:46.760Z,115.07
2023-04-16T08:18:15.234Z,125.70
2023-04-16T08:20:50.317Z,76.93
2023-04-16T08:23:17.972Z,93.50
2023-04-16T08:25:45.415Z,81.60
2023-04-16T08:31:19.340Z,76.87
2023-04-16T08:33:46.194Z,66.27
2023-04-16T08:36:13.982Z,75.53
2023-04-16T08:38:41.255Z,62.33
2023-04-16T08:41:13.578Z,68.87
2023-04-16T08:43:47.076Z,68.70
2023-04-16T08:46:17.216Z,74.73
2023-04-16T08:48:47.268Z,67.57
2023-04-16T08:51:18.080Z,61.70
2023-04-16T08:58:50.303Z,42.73
2023-04-16T09:01:18.862Z,45.63
2023-04-16T09:03:49.953Z,49.73
2023-04-16T09:06:17.784Z,45.77
2023-04-16T09:09:00.512Z,40.73
2023-04-16T09:11:47.841Z,43.77
2023-04-16T09:14:15.844Z,40.87
2023-04-16T09:24:51.922Z,36.50
2023-04-16T09:28:02.213Z,31.50
2023-04-16T09:30:34.246Z,29.10
2023-04-16T09:33:16.115Z,27.00
2023-04-16T09:35:48.466Z,26.17
2023-04-16T09:38:16.349Z,26.87
2023-04-16T09:41:12.496Z,29.73
2023-04-16T09:49:10.426Z,25.63
2023-04-16T09:52:02.908Z,20.07
2023-04-16T09:54:30.736Z,22.53
2023-04-16T09:56:58.109Z,22.80
2023-04-16T09:59:25.688Z,24.73
2023-04-16T10:02:15.353Z,22.43
2023-04-16T10:04:52.380Z,21.97
2023-04-16T10:12:18.749Z,20.17
2023-04-16T10:14:49.502Z,23.23
2023-04-16T10:17:17.408Z,21.50
2023-04-16T10:19:46.059Z,23.77
2023-04-16T10:22:13.735Z,23.57
2023-04-16T10:24:41.819Z,18.57
2023-04-16T10:27:11.966Z,20.70
2023-04-16T10:34:41.316Z,18.37
2023-04-16T10:37:08.702Z,23.53
2023-04-16T10:39:38.107Z,16.77
2023-04-16T10:42:10.518Z,21.50
2023-04-16T10:44:56.429Z,21.50
2023-04-16T10:47:28.649Z,19.80
2023-04-16T10:57:18.672Z,17.50
2023-04-16T10:59:46.510Z,17.20
2023-04-16T11:02:16.504Z,18.13
2023-04-16T11:04:45.065Z,18.60
2023-04-16T11:07:18.897Z,18.07
2023-04-16T11:09:49.117Z,19.60
2023-04-16T11:12:18.884Z,17.00
2023-04-16T11:19:53.511Z,15.03
2023-04-16T11:22:21.453Z,16.93
2023-04-16T11:24:54.652Z,15.00
2023-04-16T11:27:22.319Z,15.50
2023-04-16T11:29:58.445Z,16.23
2023-04-16T11:32:25.982Z,18.70
2023-04-16T11:40:35.391Z,16.10
2023-04-16T11:43:03.463Z,17.10
2023-04-16T11:45:30.628Z,17.43
2023-04-16T11:47:58.061Z,16.50
2023-04-16T11:50:29.971Z,15.87
2023-04-16T11:53:03.065Z,19.20
2023-04-16T11:55:30.562Z,18.43
2023-04-16T12:03:03.729Z,23.33
2023-04-16T12:05:33.306Z,16.57
2023-04-16T12:08:02.705Z,19.47
2023-04-16T12:10:30.869Z,20.63
2023-04-16T12:13:11.930Z,25.57
2023-04-16T12:15:47.497Z,23.27
2023-04-16T12:18:15.914Z,21.73
2023-04-16T12:25:49.530Z,24.03
2023-04-16T12:28:28.176Z,22.93
2023-04-16T12:30:55.932Z,23.30
2023-04-16T12:33:23.518Z,18.57
2023-04-16T12:35:50.831Z,19.23
2023-04-16T12:38:22.761Z,21.83
2023-04-16T12:40:52.363Z,21.83
2023-04-16T12:46:15.885Z,20.60
2023-04-16T12:48:43.431Z,17.17
2023-04-16T12:51:10.872Z,20.30
2023-04-16T12:53:38.137Z,20.60
2023-04-16T12:56:05.885Z,18.83
2023-04-16T12:58:33.822Z,19.30
2023-04-16T13:01:01.205Z,18.23
2023-04-16T13:08:34.428Z,16.23
2023-04-16T13:11:01.489Z,15.53
2023-04-16T13:13:29.006Z,14.23
2023-04-16T13:15:56.606Z,15.93
2023-04-16T13:18:24.908Z,15.73
2023-04-16T13:20:52.593Z,14.67
2023-04-16T13:23:19.953Z,12.57
2023-04-16T13:30:59.075Z,13.17
2023-04-16T13:33:26.928Z,11.90
2023-04-16T13:35:55.035Z,13.53
2023-04-16T13:38:22.636Z,14.30
2023-04-16T13:40:49.944Z,13.60
2023-04-16T13:43:18.275Z,11.27
2023-04-16T13:45:45.485Z,14.47
2023-04-16T13:53:23.769Z,12.03
2023-04-16T13:55:51.152Z,11.83
2023-04-16T13:58:18.566Z,10.40
2023-04-16T14:00:46.200Z,13.10
2023-04-16T14:03:13.723Z,12.03
2023-04-16T14:05:41.899Z,10.43
2023-04-16T14:08:09.633Z,11.47
2023-04-16T14:16:27.856Z,10.27
2023-04-16T14:18:56.506Z,9.97
2023-04-16T14:21:23.782Z,9.90
2023-04-16T14:23:51.190Z,12.23
2023-04-16T14:26:18.494Z,10.27
2023-04-16T14:28:45.964Z,10.23
2023-04-16T14:31:14.796Z,10.57
2023-04-16T14:36:38.320Z,9.40
2023-04-16T14:39:05.728Z,11.93
2023-04-16T14:41:33.029Z,12.17
2023-04-16T14:44:00.386Z,13.17
2023-04-16T14:46:28.329Z,13.37
2023-04-16T14:48:55.857Z,8.67
2023-04-16T14:51:23.194Z,11.73
2023-04-16T14:58:55.541Z,11.77
2023-04-16T15:01:22.970Z,11.30
2023-04-16T15:03:50.500Z,12.00
2023-04-16T15:06:19.085Z,9.77
2023-04-16T15:08:48.436Z,12.60
2023-04-16T15:11:15.395Z,11.90
2023-04-16T15:13:44.713Z,13.77
2023-04-16T15:21:17.411Z,11.57
2023-04-16T15:23:44.642Z,7.57
2023-04-16T15:26:12.281Z,10.67
2023-04-16T15:28:39.505Z,11.27
2023-04-16T15:31:06.814Z,13.43
2023-04-16T15:33:34.218Z,11.70
2023-04-16T15:36:02.022Z,13.10
2023-04-16T15:43:34.049Z,15.03
2023-04-16T15:46:01.300Z,17.27
2023-04-16T15:48:29.271Z,14.43
2023-04-16T15:50:56.925Z,15.90
2023-04-16T15:53:24.642Z,16.63
2023-04-16T15:55:53.325Z,20.60
2023-04-16T15:58:20.699Z,15.67
2023-04-16T16:05:52.225Z,13.83
2023-04-16T16:08:19.666Z,16.67
2023-04-16T16:10:46.650Z,16.97
2023-04-16T16:13:18.020Z,17.13
2023-04-16T16:15:46.078Z,20.77
2023-04-16T16:18:13.133Z,15.77
2023-04-16T16:20:40.667Z,14.37
2023-04-16T16:28:15.057Z,15.57
2023-04-16T16:30:46.791Z,12.17
2023-04-16T16:33:14.291Z,16.33
2023-04-16T16:35:42.283Z,17.10
2023-04-16T16:38:09.403Z,14.43
2023-04-16T16:40:37.221Z,14.67
2023-04-16T16:43:05.058Z,16.63
2023-04-16T16:51:24.993Z,18.13
2023-04-16T16:53:53.301Z,16.70
2023-04-16T16:56:20.317Z,17.37
2023-04-16T16:58:48.399Z,19.53
2023-04-16T17:01:16.747Z,29.37
2023-04-16T17:03:44.168Z,18.77
2023-04-16T17:06:11.955Z,28.83
2023-04-16T17:08:47.013Z,17.77
2023-04-16T17:16:20.513Z,21.40
2023-04-16T17:18:47.807Z,18.73
2023-04-16T17:21:16.518Z,20.97
2023-04-16T17:23:46.829Z,20.03
2023-04-16T17:26:15.330Z,23.63
2023-04-16T17:28:42.832Z,21.37
2023-04-16T17:31:11.361Z,16.47
2023-04-16T17:40:49.093Z,19.97
2023-04-16T17:43:16.416Z,19.20
2023-04-16T17:45:43.733Z,13.87
2023-04-16T17:48:13.787Z,19.80
2023-04-16T17:50:41.929Z,21.27
2023-04-16T17:53:10.309Z,24.20
2023-04-16T17:55:39.262Z,19.83
2023-04-16T18:03:13.462Z,21.03
2023-04-16T18:05:45.963Z,24.80
2023-04-16T18:08:16.776Z,16.37
2023-04-16T18:10:43.946Z,19.43
2023-04-16T18:13:11.492Z,19.17
2023-04-16T18:15:39.771Z,27.10
2023-04-16T18:18:07.314Z,23.07
2023-04-16T18:25:40.422Z,17.97
2023-04-16T18:28:08.178Z,20.23
2023-04-16T18:30:35.608Z,21.63
2023-04-16T18:35:32.742Z,22.83
2023-04-16T18:38:00.049Z,19.00
2023-04-16T18:40:28.978Z,20.70
2023-04-16T18:48:03.671Z,20.27
2023-04-16T18:50:31.882Z,19.67
2023-04-16T18:52:59.108Z,15.20
2023-04-16T18:55:26.920Z,19.67
2023-04-16T18:57:54.608Z,18.87
2023-04-16T19:00:22.021Z,20.77
2023-04-16T19:02:49.636Z,21.63
2023-04-16T19:10:23.691Z,20.80
2023-04-16T19:12:51.061Z,20.80
2023-04-16T19:15:18.504Z,21.30
2023-04-16T19:17:46.554Z,22.30
2023-04-16T19:20:14.700Z,18.90
2023-04-16T19:22:41.997Z,21.57
2023-04-16T19:25:10.372Z,22.27
2023-04-16T19:32:43.183Z,20.40
2023-04-16T19:35:11.178Z,18.90
2023-04-16T19:37:38.557Z,23.50
2023-04-16T19:40:07.119Z,23.40
2023-04-16T19:42:35.281Z,25.67
2023-04-16T19:45:02.792Z,18.37
2023-04-16T19:47:32.181Z,23.63
2023-04-16T19:55:20.132Z,21.50
2023-04-16T19:57:48.416Z,21.73
2023-04-16T20:00:17.076Z,20.77
2023-04-16T20:02:45.049Z,18.27
2023-04-16T20:05:14.464Z,22.13
2023-04-16T20:07:42.120Z,21.97
2023-04-16T20:10:10.830Z,21.90
2023-04-16T20:20:46.723Z,22.30
2023-04-16T20:23:14.121Z,26.90
2023-04-16T20:25:42.178Z,23.70
2023-04-16T20:28:09.714Z,33.37
2023-04-16T20:30:38.980Z,27.63
2023-04-16T20:33:07.061Z,22.50
2023-04-16T20:35:35.167Z,27.37
2023-04-16T20:41:20.529Z,26.43
2023-04-16T20:43:52.316Z,23.43
2023-04-16T20:46:24.064Z,26.23
2023-04-16T20:48:51.642Z,21.23
2023-04-16T20:51:19.011Z,24.40
2023-04-16T20:53:46.234Z,27.00
2023-04-16T20:56:15.057Z,24.23
2023-04-16T21:03:41.815Z,27.47
2023-04-16T21:06:09.225Z,25.97
2023-04-16T21:08:36.573Z,25.53
2023-04-16T21:11:03.841Z,27.60
2023-04-16T21:13:31.082Z,35.97
2023-04-16T21:15:58.355Z,33.60
2023-04-16T21:18:25.504Z,34.63
2023-04-16T21:26:27.456Z,38.33
2023-04-16T21:28:55.259Z,31.40
2023-04-16T21:31:22.792Z,32.57
2023-04-16T21:33:50.357Z,34.63
2023-04-16T21:36:17.919Z,28.87
2023-04-16T21:39:16.886Z,32.20
2023-04-16T21:41:46.903Z,36.00
2023-04-16T21:49:22.566Z,29.37
2023-04-16T21:51:50.235Z,36.33
2023-04-16T21:54:19.587Z,31.83
2023-04-16T21:56:46.915Z,32.30
2023-04-16T21:59:14.504Z,33.07
2023-04-16T22:01:41.786Z,34.33
2023-04-16T22:04:10.072Z,37.73
2023-04-16T22:11:37.794Z,35.57
2023-04-16T22:14:07.555Z,31.30
2023-04-16T22:16:35.308Z,35.53
2023-04-16T22:19:02.236Z,33.20
2023-04-16T22:21:29.374Z,33.13
2023-04-16T22:23:56.798Z,35.63
2023-04-16T22:26:23.764Z,38.50
2023-04-16T22:33:55.611Z,40.37
2023-04-16T22:36:23.164Z,41.07
2023-04-16T22:38:50.239Z,39.07
2023-04-16T22:41:17.414Z,40.13
2023-04-16T22:43:44.718Z,33.13
2023-04-16T22:46:12.185Z,35.53
2023-04-16T22:48:39.672Z,33.50
2023-04-16T22:56:17.988Z,36.20
2023-04-16T22:58:45.819Z,35.13
2023-04-16T23:01:13.262Z,36.83
2023-04-16T23:03:40.584Z,32.70
2023-04-16T23:06:07.951Z,45.07
2023-04-16T23:08:35.464Z,38.23
2023-04-16T23:11:03.306Z,39.27
2023-04-16T23:18:37.593Z,38.20
2023-04-16T23:21:05.083Z,38.90
2023-04-16T23:23:32.045Z,38.67
2023-04-16T23:26:00.664Z,42.90
2023-04-16T23:28:28.014Z,40.57
2023-04-16T23:30:55.458Z,41.07
2023-04-16T23:33:22.830Z,39.63
2023-04-16T23:40:59.959Z,40.80
2023-04-16T23:43:27.303Z,47.87
2023-04-16T23:45:54.480Z,45.27
2023-04-16T23:48:21.904Z,41.17
2023-04-16T23:50:48.812Z,42.57
2023-04-16T23:53:16.663Z,44.53
2023-04-16T23:55:43.919Z,42.07
